createdAt,value
2019-03-24T00:03:47.899Z,79251.63
2019-03-24T00:08:54.924Z,79239.64
2019-03-24T00:14:07.274Z,79242.64
2019-03-24T00:19:21.866Z,79258.63
2019-03-24T00:24:35.165Z,79268.61
2019-03-24T00:29:44.429Z,79269.61
2019-03-24T00:34:55.241Z,79303.58
2019-03-24T00:40:03.937Z,79312.57
2019-03-24T00:45:13.937Z,79319.56
2019-03-24T00:50:21.306Z,79306.58
2019-03-24T00:55:32.057Z,79324.56
2019-03-24T01:00:52.847Z,79336.55
2019-03-24T01:06:04.036Z,79320.56
2019-03-24T01:11:17.479Z,79305.58
2019-03-24T01:16:28.717Z,79318.56
2019-03-24T01:21:35.818Z,79333.55
2019-03-24T01:26:45.704Z,79340.55
2019-03-24T01:31:55.308Z,79348.53
2019-03-24T01:37:02.179Z,79360.53
2019-03-24T01:42:10.591Z,79359.53
2019-03-24T01:47:21.417Z,79353.53
2019-03-24T01:52:28.512Z,79360.53
2019-03-24T01:57:35.556Z,79365.52
2019-03-24T02:02:43.059Z,79377.52
2019-03-24T02:07:56.454Z,79384.50
2019-03-24T02:13:05.859Z,79382.50
2019-03-24T02:18:15.890Z,79372.52
2019-03-24T02:23:31.519Z,79374.52
2019-03-24T02:28:37.972Z,79377.52
2019-03-24T02:33:46.943Z,79380.51
2019-03-24T02:38:59.053Z,79372.52
2019-03-24T02:44:09.936Z,79379.51
2019-03-24T02:49:18.055Z,79387.50
2019-03-24T02:54:30.154Z,79379.51
2019-03-24T02:59:42.572Z,79390.50
2019-03-24T03:04:51.112Z,79386.50
2019-03-24T03:10:01.060Z,79392.50
2019-03-24T03:15:12.132Z,79401.48
2019-03-24T03:20:21.073Z,79410.48
2019-03-24T03:25:29.253Z,79406.48
2019-03-24T03:30:42.136Z,79404.48
2019-03-24T03:35:57.257Z,79406.48
2019-03-24T03:41:05.593Z,79396.49
2019-03-24T03:46:15.359Z,79392.50
2019-03-24T03:51:26.786Z,79392.50
2019-03-24T03:56:35.569Z,79396.49
2019-03-24T04:01:48.048Z,79408.48
2019-03-24T04:06:57.442Z,79411.48
2019-03-24T04:12:10.736Z,79413.47
2019-03-24T04:17:17.826Z,79414.47
2019-03-24T04:22:29.688Z,79424.47
2019-03-24T04:27:38.897Z,79422.47
2019-03-24T04:32:53.257Z,79422.47
2019-03-24T04:38:04.485Z,79426.46
2019-03-24T04:43:15.778Z,79451.44
2019-03-24T04:48:22.676Z,79452.44
2019-03-24T04:53:32.545Z,79441.45
2019-03-24T04:58:43.773Z,79447.45
2019-03-24T05:03:53.061Z,79445.45
2019-03-24T05:09:01.848Z,79454.44
2019-03-24T05:14:11.705Z,79456.44
2019-03-24T05:19:24.213Z,79449.44
2019-03-24T05:24:40.265Z,79439.45
2019-03-24T05:29:47.342Z,79438.45
2019-03-24T05:34:55.050Z,79428.46
2019-03-24T05:40:04.913Z,79414.47
2019-03-24T05:45:12.490Z,79414.47
2019-03-24T05:50:21.210Z,79415.47
2019-03-24T05:55:28.419Z,79406.48
2019-03-24T06:00:41.351Z,79407.48
2019-03-24T06:05:53.742Z,79404.48
2019-03-24T06:11:03.845Z,79395.49
2019-03-24T06:16:14.102Z,79389.50
2019-03-24T06:21:27.109Z,79385.50
2019-03-24T06:26:35.546Z,79353.53
2019-03-24T06:31:50.692Z,79328.55
2019-03-24T06:37:05.857Z,79320.56
2019-03-24T06:42:16.898Z,79321.56
2019-03-24T06:47:26.821Z,79305.58
2019-03-24T06:52:35.950Z,79299.58
2019-03-24T06:57:50.178Z,79282.60
2019-03-24T07:02:59.253Z,79271.61
2019-03-24T07:08:12.548Z,79249.63
2019-03-24T07:13:28.450Z,79234.65
2019-03-24T07:18:39.170Z,79218.66
2019-03-24T07:23:51.054Z,79192.69
2019-03-24T07:29:03.492Z,79180.70
2019-03-24T07:34:13.466Z,79160.72
2019-03-24T07:39:23.558Z,79128.75
2019-03-24T07:44:34.589Z,79111.77
2019-03-24T07:49:46.029Z,79093.79
2019-03-24T07:54:54.413Z,79062.82
2019-03-24T08:00:03.115Z,79030.85
2019-03-24T08:05:13.951Z,79022.86
2019-03-24T08:10:21.016Z,78982.91
2019-03-24T08:15:29.495Z,78949.94
2019-03-24T08:20:40.741Z,78932.95
2019-03-24T08:25:48.161Z,78881.02
2019-03-24T08:30:57.272Z,78876.02
2019-03-24T08:36:04.655Z,78831.06
2019-03-24T08:41:15.651Z,78869.02
2019-03-24T08:46:26.744Z,78821.08
2019-03-24T08:51:33.529Z,78787.11
2019-03-24T08:56:48.845Z,78831.06
2019-03-24T09:01:57.250Z,78741.16
2019-03-24T09:07:06.381Z,78692.22
2019-03-24T09:12:20.818Z,78612.30
2019-03-24T09:22:38.340Z,78469.47
2019-03-24T09:27:49.062Z,78461.48
2019-03-24T09:32:56.075Z,78438.51
2019-03-24T09:38:03.294Z,78295.68
2019-03-24T09:43:10.373Z,78263.72
2019-03-24T09:48:20.062Z,78290.69
2019-03-24T09:53:35.934Z,78308.66
2019-03-24T09:58:44.731Z,78331.64
2019-03-24T10:03:58.973Z,78314.66
2019-03-24T10:09:09.476Z,78251.73
2019-03-24T10:14:17.400Z,78225.77
2019-03-24T10:19:26.519Z,78201.80
2019-03-24T10:24:36.454Z,78162.84
2019-03-24T10:29:44.499Z,78024.02
2019-03-24T10:34:56.937Z,77815.30
2019-03-24T10:40:06.898Z,77612.57
2019-03-24T10:45:14.750Z,77694.45
2019-03-24T10:50:28.178Z,77646.52
2019-03-24T10:55:46.249Z,77493.73
2019-03-24T11:00:55.396Z,77454.80
2019-03-24T11:06:07.911Z,77366.92
2019-03-24T11:11:27.230Z,77250.09
2019-03-24T11:16:39.487Z,77089.33
2019-03-24T11:21:53.314Z,76964.52
2019-03-24T11:27:06.768Z,77103.31
2019-03-24T11:32:17.638Z,77361.92
2019-03-24T11:37:27.434Z,77238.11
2019-03-24T11:42:37.312Z,77039.41
2019-03-24T11:47:47.514Z,76991.48
2019-03-24T11:52:56.262Z,76888.64
2019-03-24T11:58:08.934Z,76622.06
2019-03-24T12:03:18.218Z,76875.66
2019-03-24T12:08:27.585Z,76989.48
2019-03-24T12:13:37.161Z,76990.48
2019-03-24T12:18:47.690Z,77064.37
2019-03-24T12:23:54.836Z,77144.25
2019-03-24T12:29:04.138Z,77138.25
2019-03-24T12:34:18.266Z,76973.51
2019-03-24T12:39:27.545Z,77079.34
2019-03-24T12:44:36.962Z,77187.19
2019-03-24T12:49:47.107Z,77207.16
2019-03-24T12:54:59.060Z,77117.29
2019-03-24T13:00:11.257Z,77138.25
2019-03-24T13:05:19.343Z,77037.41
2019-03-24T13:10:26.776Z,77246.09
2019-03-24T13:15:35.649Z,77260.08
2019-03-24T13:20:48.600Z,77311.00
2019-03-24T13:25:59.282Z,77446.80
2019-03-24T13:31:15.265Z,77172.20
2019-03-24T13:36:25.483Z,76947.55
2019-03-24T13:41:31.772Z,76779.81
2019-03-24T13:46:39.553Z,76333.55
2019-03-24T13:51:48.410Z,75966.19
2019-03-24T13:56:57.704Z,75796.50
2019-03-24T14:02:06.693Z,75761.56
2019-03-24T14:07:16.656Z,75604.86
2019-03-24T14:12:28.640Z,75804.48
2019-03-24T14:17:38.643Z,75699.69
2019-03-24T14:22:46.111Z,75589.89
2019-03-24T14:27:59.938Z,75472.11
2019-03-24T14:33:09.709Z,75416.22
2019-03-24T14:38:19.567Z,75539.98
2019-03-24T14:43:33.745Z,75534.00
2019-03-24T14:48:40.194Z,75607.86
2019-03-24T14:53:52.628Z,75755.58
2019-03-24T14:59:03.725Z,75695.69
2019-03-24T15:04:14.338Z,75829.44
2019-03-24T15:09:24.272Z,75753.58
2019-03-24T15:14:31.527Z,76739.88
2019-03-24T15:19:39.229Z,76739.88
2019-03-24T15:24:50.921Z,76935.56
2019-03-24T15:30:00.708Z,77084.34
2019-03-24T15:35:10.481Z,77179.20
2019-03-24T15:40:26.591Z,77197.17
2019-03-24T15:45:37.248Z,77312.00
2019-03-24T15:50:44.035Z,77338.95
2019-03-24T15:55:51.742Z,77373.91
2019-03-24T16:01:09.434Z,77380.90
2019-03-24T16:06:20.601Z,77407.86
2019-03-24T16:11:35.303Z,77451.80
2019-03-24T16:16:42.088Z,77474.77
2019-03-24T16:21:48.946Z,77510.72
2019-03-24T16:26:58.607Z,77524.70
2019-03-24T16:32:05.319Z,77575.63
2019-03-24T16:37:18.452Z,77592.59
2019-03-24T16:42:31.208Z,77605.58
2019-03-24T16:47:41.371Z,77634.54
2019-03-24T16:52:49.739Z,77639.53
2019-03-24T16:57:58.545Z,77642.53
2019-03-24T17:03:08.471Z,77693.46
2019-03-24T17:08:17.567Z,77714.43
2019-03-24T17:13:27.001Z,77750.38
2019-03-24T17:18:37.244Z,77776.34
2019-03-24T17:23:51.658Z,77832.27
2019-03-24T17:29:01.607Z,77840.26
2019-03-24T17:34:12.313Z,77854.24
2019-03-24T17:39:21.096Z,77864.23
2019-03-24T17:44:28.770Z,77887.20
2019-03-24T17:49:38.425Z,77920.16
2019-03-24T17:54:46.903Z,77942.13
2019-03-24T17:59:56.083Z,77986.07
2019-03-24T18:05:06.063Z,78006.05
2019-03-24T18:10:13.724Z,78026.02
2019-03-24T18:15:25.776Z,78049.98
2019-03-24T18:20:34.156Z,78077.95
2019-03-24T18:25:42.467Z,78106.91
2019-03-24T18:30:52.200Z,78129.88
2019-03-24T18:36:02.858Z,78157.85
2019-03-24T18:41:11.694Z,78169.84
2019-03-24T18:46:21.942Z,78183.81
2019-03-24T18:51:31.374Z,78197.80
2019-03-24T18:56:45.919Z,78203.80
2019-03-24T19:01:59.109Z,78202.80
2019-03-24T19:07:06.912Z,78218.77
2019-03-24T19:12:17.000Z,78223.77
2019-03-24T19:17:31.302Z,78241.75
2019-03-24T19:22:42.783Z,78261.72
2019-03-24T19:27:51.966Z,78270.71
2019-03-24T19:32:59.519Z,78283.70
2019-03-24T19:39:44.332Z,78295.68
2019-03-24T19:44:54.056Z,78334.63
2019-03-24T19:50:04.449Z,78391.56
2019-03-24T19:55:12.969Z,78399.55
2019-03-24T20:00:22.331Z,78423.53
2019-03-24T20:05:33.037Z,78465.48
2019-03-24T20:10:47.107Z,78472.47
2019-03-24T20:15:56.013Z,78479.46
2019-03-24T20:21:06.774Z,78492.45
2019-03-24T20:26:14.783Z,78490.45
2019-03-24T20:31:23.333Z,78499.44
2019-03-24T20:36:38.153Z,78485.45
2019-03-24T20:41:48.121Z,78496.44
2019-03-24T20:46:59.713Z,78547.38
2019-03-24T20:52:08.573Z,78567.36
2019-03-24T20:57:18.503Z,78579.34
2019-03-24T21:02:27.692Z,78585.34
2019-03-24T21:07:37.780Z,78608.31
2019-03-24T21:12:44.514Z,78619.30
2019-03-24T21:17:53.177Z,78611.31
2019-03-24T21:23:06.663Z,78610.31
2019-03-24T21:28:14.733Z,78629.29
2019-03-24T21:33:23.847Z,78639.28
2019-03-24T21:38:35.035Z,78658.25
2019-03-24T21:43:47.198Z,78673.23
2019-03-24T21:49:01.830Z,78682.23
2019-03-24T21:54:12.586Z,78691.22
2019-03-24T21:59:20.257Z,78685.23
2019-03-24T22:04:28.654Z,78677.23
2019-03-24T22:09:40.261Z,78675.23
2019-03-24T22:14:53.764Z,78676.23
2019-03-24T22:20:03.602Z,78672.23
2019-03-24T22:25:15.209Z,78680.23
2019-03-24T22:30:23.177Z,78673.23
2019-03-24T22:35:33.128Z,78671.24
2019-03-24T22:40:42.439Z,78668.24
2019-03-24T22:45:50.166Z,78675.23
2019-03-24T22:50:58.528Z,78669.24
2019-03-24T22:56:07.874Z,78671.24
2019-03-24T23:01:16.434Z,78659.25
2019-03-24T23:06:36.384Z,78639.28
2019-03-24T23:11:44.524Z,78629.29
2019-03-24T23:17:01.410Z,78618.30
2019-03-24T23:22:09.859Z,78629.29
2019-03-24T23:27:19.037Z,78628.29
2019-03-24T23:32:28.832Z,78619.30
2019-03-24T23:37:42.161Z,78608.31
2019-03-24T23:42:51.881Z,78605.31
2019-03-24T23:48:09.412Z,78588.34
2019-03-24T23:53:21.189Z,78584.34
2019-03-24T23:58:40.315Z,78577.34
